sensor_id;sensor_type;location;lat;lon;timestamp;P1;durP1;ratioP1;P2;durP2;ratioP2
12474;SDS011;6302;42.624;23.334;2022-12-07T00:01:24;40.10;;;23.97;;
12474;SDS011;6302;42.624;23.334;2022-12-07T00:03:53;38.43;;;25.13;;
12474;SDS011;6302;42.624;23.334;2022-12-07T00:06:23;34.07;;;23.60;;
12474;SDS011;6302;42.624;23.334;2022-12-07T00:08:50;36.13;;;23.93;;
12474;SDS011;6302;42.624;23.334;2022-12-07T00:11:18;40.70;;;23.17;;
12474;SDS011;6302;42.624;23.334;2022-12-07T00:13:50;37.50;;;24.00;;
12474;SDS011;6302;42.624;23.334;2022-12-07T00:16:19;40.27;;;23.50;;
12474;SDS011;6302;42.624;23.334;2022-12-07T00:18:47;34.80;;;22.37;;
12474;SDS011;6302;42.624;23.334;2022-12-07T00:21:14;45.10;;;25.03;;
12474;SDS011;6302;42.624;23.334;2022-12-07T00:23:44;38.53;;;23.73;;
12474;SDS011;6302;42.624;23.334;2022-12-07T00:26:13;34.70;;;23.23;;
12474;SDS011;6302;42.624;23.334;2022-12-07T00:28:41;38.57;;;24.57;;
12474;SDS011;6302;42.624;23.334;2022-12-07T00:31:11;41.53;;;27.17;;
12474;SDS011;6302;42.624;23.334;2022-12-07T00:33:39;44.77;;;28.03;;
12474;SDS011;6302;42.624;23.334;2022-12-07T00:36:07;38.80;;;27.10;;
12474;SDS011;6302;42.624;23.334;2022-12-07T00:38:35;40.30;;;25.90;;
12474;SDS011;6302;42.624;23.334;2022-12-07T00:41:05;45.03;;;27.77;;
12474;SDS011;6302;42.624;23.334;2022-12-07T00:43:35;46.20;;;28.37;;
12474;SDS011;6302;42.624;23.334;2022-12-07T00:46:02;42.77;;;25.97;;
12474;SDS011;6302;42.624;23.334;2022-12-07T00:48:29;47.83;;;30.83;;
12474;SDS011;6302;42.624;23.334;2022-12-07T00:50:56;44.83;;;28.90;;
12474;SDS011;6302;42.624;23.334;2022-12-07T00:53:22;51.83;;;31.83;;
12474;SDS011;6302;42.624;23.334;2022-12-07T00:55:49;50.97;;;31.70;;
12474;SDS011;6302;42.624;23.334;2022-12-07T00:58:19;49.87;;;29.67;;
12474;SDS011;6302;42.624;23.334;2022-12-07T01:00:45;46.30;;;26.73;;
12474;SDS011;6302;42.624;23.334;2022-12-07T01:03:13;41.77;;;25.63;;
12474;SDS011;6302;42.624;23.334;2022-12-07T01:05:48;39.57;;;25.57;;
12474;SDS011;6302;42.624;23.334;2022-12-07T01:08:16;38.97;;;24.60;;
12474;SDS011;6302;42.624;23.334;2022-12-07T01:10:42;44.20;;;26.70;;
12474;SDS011;6302;42.624;23.334;2022-12-07T01:13:09;38.63;;;27.67;;
12474;SDS011;6302;42.624;23.334;2022-12-07T01:15:39;48.63;;;29.50;;
12474;SDS011;6302;42.624;23.334;2022-12-07T01:18:07;44.73;;;27.13;;
12474;SDS011;6302;42.624;23.334;2022-12-07T01:20:34;44.50;;;27.70;;
12474;SDS011;6302;42.624;23.334;2022-12-07T01:23:01;42.30;;;27.50;;
12474;SDS011;6302;42.624;23.334;2022-12-07T01:25:28;44.87;;;28.80;;
12474;SDS011;6302;42.624;23.334;2022-12-07T01:27:54;41.83;;;26.83;;
12474;SDS011;6302;42.624;23.334;2022-12-07T01:30:21;47.23;;;29.67;;
12474;SDS011;6302;42.624;23.334;2022-12-07T01:32:49;46.37;;;28.37;;
12474;SDS011;6302;42.624;23.334;2022-12-07T01:35:16;49.90;;;31.00;;
12474;SDS011;6302;42.624;23.334;2022-12-07T01:37:43;45.40;;;27.63;;
12474;SDS011;6302;42.624;23.334;2022-12-07T01:40:10;52.47;;;28.77;;
12474;SDS011;6302;42.624;23.334;2022-12-07T01:42:37;45.17;;;27.93;;
12474;SDS011;6302;42.624;23.334;2022-12-07T01:48:07;46.00;;;26.90;;
12474;SDS011;6302;42.624;23.334;2022-12-07T01:50:36;41.27;;;27.47;;
12474;SDS011;6302;42.624;23.334;2022-12-07T01:53:05;43.90;;;28.80;;
12474;SDS011;6302;42.624;23.334;2022-12-07T01:55:36;49.00;;;31.97;;
12474;SDS011;6302;42.624;23.334;2022-12-07T01:58:06;47.43;;;30.00;;
12474;SDS011;6302;42.624;23.334;2022-12-07T02:00:33;45.43;;;27.93;;
12474;SDS011;6302;42.624;23.334;2022-12-07T02:03:01;44.77;;;29.13;;
12474;SDS011;6302;42.624;23.334;2022-12-07T02:05:34;44.33;;;28.77;;
12474;SDS011;6302;42.624;23.334;2022-12-07T02:08:03;51.70;;;29.87;;
12474;SDS011;6302;42.624;23.334;2022-12-07T02:10:30;46.27;;;29.93;;
12474;SDS011;6302;42.624;23.334;2022-12-07T02:12:58;44.23;;;28.50;;
12474;SDS011;6302;42.624;23.334;2022-12-07T02:15:30;42.57;;;26.97;;
12474;SDS011;6302;42.624;23.334;2022-12-07T02:18:06;41.93;;;26.23;;
12474;SDS011;6302;42.624;23.334;2022-12-07T02:20:42;45.47;;;27.10;;
12474;SDS011;6302;42.624;23.334;2022-12-07T02:29:13;37.00;;;24.80;;
12474;SDS011;6302;42.624;23.334;2022-12-07T02:31:50;40.33;;;25.83;;
12474;SDS011;6302;42.624;23.334;2022-12-07T02:34:26;39.13;;;24.47;;
12474;SDS011;6302;42.624;23.334;2022-12-07T02:37:00;42.27;;;27.37;;
12474;SDS011;6302;42.624;23.334;2022-12-07T02:39:32;41.47;;;23.83;;
12474;SDS011;6302;42.624;23.334;2022-12-07T02:42:07;41.20;;;25.90;;
12474;SDS011;6302;42.624;23.334;2022-12-07T02:44:41;38.37;;;25.17;;
12474;SDS011;6302;42.624;23.334;2022-12-07T02:47:10;34.80;;;23.27;;
12474;SDS011;6302;42.624;23.334;2022-12-07T02:49:40;38.70;;;23.33;;
12474;SDS011;6302;42.624;23.334;2022-12-07T02:52:08;35.27;;;23.47;;
12474;SDS011;6302;42.624;23.334;2022-12-07T02:54:35;37.10;;;23.90;;
12474;SDS011;6302;42.624;23.334;2022-12-07T02:57:03;37.57;;;22.37;;
12474;SDS011;6302;42.624;23.334;2022-12-07T02:59:40;38.60;;;24.17;;
12474;SDS011;6302;42.624;23.334;2022-12-07T03:02:22;35.37;;;23.00;;
12474;SDS011;6302;42.624;23.334;2022-12-07T03:04:57;39.43;;;23.70;;
12474;SDS011;6302;42.624;23.334;2022-12-07T03:07:35;33.73;;;22.10;;
12474;SDS011;6302;42.624;23.334;2022-12-07T03:10:10;33.93;;;22.43;;
12474;SDS011;6302;42.624;23.334;2022-12-07T03:12:44;33.00;;;20.90;;
12474;SDS011;6302;42.624;23.334;2022-12-07T03:15:31;29.30;;;20.77;;
12474;SDS011;6302;42.624;23.334;2022-12-07T03:18:02;34.67;;;21.63;;
12474;SDS011;6302;42.624;23.334;2022-12-07T03:20:31;34.67;;;20.37;;
12474;SDS011;6302;42.624;23.334;2022-12-07T03:23:00;32.03;;;21.60;;
12474;SDS011;6302;42.624;23.334;2022-12-07T03:25:30;34.67;;;21.10;;
12474;SDS011;6302;42.624;23.334;2022-12-07T03:28:00;35.10;;;20.87;;
12474;SDS011;6302;42.624;23.334;2022-12-07T03:30:33;30.27;;;21.10;;
12474;SDS011;6302;42.624;23.334;2022-12-07T03:33:04;34.17;;;21.40;;
12474;SDS011;6302;42.624;23.334;2022-12-07T03:35:38;32.07;;;20.83;;
12474;SDS011;6302;42.624;23.334;2022-12-07T03:38:11;28.90;;;20.70;;
12474;SDS011;6302;42.624;23.334;2022-12-07T03:40:44;29.20;;;19.33;;
12474;SDS011;6302;42.624;23.334;2022-12-07T03:43:16;29.37;;;19.80;;
12474;SDS011;6302;42.624;23.334;2022-12-07T03:45:48;33.00;;;20.60;;
12474;SDS011;6302;42.624;23.334;2022-12-07T03:48:28;32.93;;;18.90;;
12474;SDS011;6302;42.624;23.334;2022-12-07T03:51:03;27.47;;;18.60;;
12474;SDS011;6302;42.624;23.334;2022-12-07T03:53:39;27.63;;;18.50;;
12474;SDS011;6302;42.624;23.334;2022-12-07T03:56:08;27.60;;;18.13;;
12474;SDS011;6302;42.624;23.334;2022-12-07T03:58:37;25.20;;;17.93;;
12474;SDS011;6302;42.624;23.334;2022-12-07T04:01:06;25.10;;;16.73;;
12474;SDS011;6302;42.624;23.334;2022-12-07T04:03:33;25.83;;;16.33;;
12474;SDS011;6302;42.624;23.334;2022-12-07T04:06:00;23.60;;;16.10;;
12474;SDS011;6302;42.624;23.334;2022-12-07T04:08:27;26.40;;;16.70;;
12474;SDS011;6302;42.624;23.334;2022-12-07T04:10:54;26.23;;;17.03;;
12474;SDS011;6302;42.624;23.334;2022-12-07T04:13:20;30.20;;;19.07;;
12474;SDS011;6302;42.624;23.334;2022-12-07T04:15:47;27.77;;;17.30;;
12474;SDS011;6302;42.624;23.334;2022-12-07T04:18:15;24.27;;;15.83;;
12474;SDS011;6302;42.624;23.334;2022-12-07T04:20:42;24.60;;;15.10;;
12474;SDS011;6302;42.624;23.334;2022-12-07T04:23:09;21.43;;;13.93;;
12474;SDS011;6302;42.624;23.334;2022-12-07T04:25:36;19.10;;;13.43;;
12474;SDS011;6302;42.624;23.334;2022-12-07T04:28:03;18.60;;;13.53;;
12474;SDS011;6302;42.624;23.334;2022-12-07T04:30:30;20.07;;;14.30;;
12474;SDS011;6302;42.624;23.334;2022-12-07T04:32:57;20.60;;;14.27;;
12474;SDS011;6302;42.624;23.334;2022-12-07T04:35:25;19.83;;;14.07;;
12474;SDS011;6302;42.624;23.334;2022-12-07T04:37:52;19.77;;;13.93;;
12474;SDS011;6302;42.624;23.334;2022-12-07T04:40:18;22.30;;;14.17;;
12474;SDS011;6302;42.624;23.334;2022-12-07T04:42:45;18.67;;;14.20;;
12474;SDS011;6302;42.624;23.334;2022-12-07T04:45:12;22.33;;;15.43;;
12474;SDS011;6302;42.624;23.334;2022-12-07T04:47:39;21.20;;;15.27;;
12474;SDS011;6302;42.624;23.334;2022-12-07T04:50:06;20.07;;;14.50;;
12474;SDS011;6302;42.624;23.334;2022-12-07T04:52:35;19.77;;;13.30;;
12474;SDS011;6302;42.624;23.334;2022-12-07T04:55:01;19.30;;;14.57;;
12474;SDS011;6302;42.624;23.334;2022-12-07T04:57:28;21.73;;;14.80;;
12474;SDS011;6302;42.624;23.334;2022-12-07T04:59:55;20.87;;;13.80;;
12474;SDS011;6302;42.624;23.334;2022-12-07T05:02:22;22.90;;;14.57;;
12474;SDS011;6302;42.624;23.334;2022-12-07T05:04:48;22.00;;;15.43;;
12474;SDS011;6302;42.624;23.334;2022-12-07T05:07:15;24.47;;;15.53;;
12474;SDS011;6302;42.624;23.334;2022-12-07T05:09:45;24.57;;;16.90;;
12474;SDS011;6302;42.624;23.334;2022-12-07T05:12:11;26.03;;;16.33;;
12474;SDS011;6302;42.624;23.334;2022-12-07T05:14:38;27.10;;;16.63;;
12474;SDS011;6302;42.624;23.334;2022-12-07T05:17:05;23.47;;;17.37;;
12474;SDS011;6302;42.624;23.334;2022-12-07T05:19:32;28.87;;;18.63;;
12474;SDS011;6302;42.624;23.334;2022-12-07T05:21:59;29.67;;;18.43;;
12474;SDS011;6302;42.624;23.334;2022-12-07T05:24:25;28.07;;;18.03;;
12474;SDS011;6302;42.624;23.334;2022-12-07T05:26:53;35.23;;;19.80;;
12474;SDS011;6302;42.624;23.334;2022-12-07T05:29:20;32.47;;;19.53;;
12474;SDS011;6302;42.624;23.334;2022-12-07T05:31:47;29.07;;;18.37;;
12474;SDS011;6302;42.624;23.334;2022-12-07T05:34:14;28.13;;;18.10;;
12474;SDS011;6302;42.624;23.334;2022-12-07T05:36:41;29.80;;;19.30;;
12474;SDS011;6302;42.624;23.334;2022-12-07T05:39:08;29.00;;;17.10;;
12474;SDS011;6302;42.624;23.334;2022-12-07T05:41:35;28.50;;;19.50;;
12474;SDS011;6302;42.624;23.334;2022-12-07T05:44:20;38.67;;;22.17;;
12474;SDS011;6302;42.624;23.334;2022-12-07T05:46:50;33.87;;;21.83;;
12474;SDS011;6302;42.624;23.334;2022-12-07T05:49:17;32.67;;;20.63;;
12474;SDS011;6302;42.624;23.334;2022-12-07T05:51:44;30.30;;;18.13;;
12474;SDS011;6302;42.624;23.334;2022-12-07T05:54:10;26.10;;;18.13;;
12474;SDS011;6302;42.624;23.334;2022-12-07T05:56:37;30.00;;;18.43;;
12474;SDS011;6302;42.624;23.334;2022-12-07T05:59:04;37.37;;;24.67;;
12474;SDS011;6302;42.624;23.334;2022-12-07T06:01:49;38.30;;;22.77;;
12474;SDS011;6302;42.624;23.334;2022-12-07T06:04:17;31.00;;;20.83;;
12474;SDS011;6302;42.624;23.334;2022-12-07T06:06:44;34.23;;;22.73;;
12474;SDS011;6302;42.624;23.334;2022-12-07T06:09:11;31.57;;;20.83;;
12474;SDS011;6302;42.624;23.334;2022-12-07T06:11:38;32.53;;;20.63;;
12474;SDS011;6302;42.624;23.334;2022-12-07T06:14:23;34.63;;;20.93;;
12474;SDS011;6302;42.624;23.334;2022-12-07T06:16:51;28.50;;;19.87;;
12474;SDS011;6302;42.624;23.334;2022-12-07T06:19:18;27.00;;;19.53;;
12474;SDS011;6302;42.624;23.334;2022-12-07T06:21:45;30.17;;;20.33;;
12474;SDS011;6302;42.624;23.334;2022-12-07T06:24:12;28.43;;;19.50;;
12474;SDS011;6302;42.624;23.334;2022-12-07T06:26:40;25.23;;;19.03;;
12474;SDS011;6302;42.624;23.334;2022-12-07T06:29:07;27.83;;;20.90;;
12474;SDS011;6302;42.624;23.334;2022-12-07T06:31:35;33.33;;;20.60;;
12474;SDS011;6302;42.624;23.334;2022-12-07T06:34:04;30.57;;;20.37;;
12474;SDS011;6302;42.624;23.334;2022-12-07T06:36:32;32.10;;;22.00;;
12474;SDS011;6302;42.624;23.334;2022-12-07T06:38:59;34.80;;;21.67;;
12474;SDS011;6302;42.624;23.334;2022-12-07T06:41:26;31.50;;;20.77;;
12474;SDS011;6302;42.624;23.334;2022-12-07T06:43:53;43.33;;;22.53;;
12474;SDS011;6302;42.624;23.334;2022-12-07T06:46:20;35.50;;;21.70;;
12474;SDS011;6302;42.624;23.334;2022-12-07T06:48:47;35.13;;;21.73;;
12474;SDS011;6302;42.624;23.334;2022-12-07T06:51:15;40.13;;;22.13;;
12474;SDS011;6302;42.624;23.334;2022-12-07T06:53:42;36.50;;;21.40;;
12474;SDS011;6302;42.624;23.334;2022-12-07T06:56:09;52.10;;;27.30;;
12474;SDS011;6302;42.624;23.334;2022-12-07T06:58:36;46.90;;;25.40;;
12474;SDS011;6302;42.624;23.334;2022-12-07T07:01:03;42.43;;;25.27;;
12474;SDS011;6302;42.624;23.334;2022-12-07T07:03:35;43.80;;;24.40;;
12474;SDS011;6302;42.624;23.334;2022-12-07T07:06:02;43.60;;;23.63;;
12474;SDS011;6302;42.624;23.334;2022-12-07T07:08:30;39.90;;;25.33;;
12474;SDS011;6302;42.624;23.334;2022-12-07T07:10:57;45.97;;;26.53;;
12474;SDS011;6302;42.624;23.334;2022-12-07T07:13:24;50.80;;;27.57;;
12474;SDS011;6302;42.624;23.334;2022-12-07T07:15:51;47.80;;;27.00;;
12474;SDS011;6302;42.624;23.334;2022-12-07T07:18:17;44.27;;;26.27;;
12474;SDS011;6302;42.624;23.334;2022-12-07T07:20:44;43.23;;;25.47;;
12474;SDS011;6302;42.624;23.334;2022-12-07T07:23:11;42.50;;;24.47;;
12474;SDS011;6302;42.624;23.334;2022-12-07T07:25:39;38.47;;;23.20;;
12474;SDS011;6302;42.624;23.334;2022-12-07T07:28:06;47.60;;;25.57;;
12474;SDS011;6302;42.624;23.334;2022-12-07T07:30:33;40.23;;;24.67;;
12474;SDS011;6302;42.624;23.334;2022-12-07T07:33:00;45.20;;;23.70;;
12474;SDS011;6302;42.624;23.334;2022-12-07T07:35:28;46.37;;;22.50;;
12474;SDS011;6302;42.624;23.334;2022-12-07T07:37:57;40.87;;;23.17;;
12474;SDS011;6302;42.624;23.334;2022-12-07T07:40:24;46.03;;;23.43;;
12474;SDS011;6302;42.624;23.334;2022-12-07T07:42:53;36.13;;;21.77;;
12474;SDS011;6302;42.624;23.334;2022-12-07T07:45:21;37.73;;;21.47;;
12474;SDS011;6302;42.624;23.334;2022-12-07T07:47:49;34.87;;;21.87;;
12474;SDS011;6302;42.624;23.334;2022-12-07T07:50:16;37.73;;;23.60;;
12474;SDS011;6302;42.624;23.334;2022-12-07T07:52:43;39.33;;;22.37;;
12474;SDS011;6302;42.624;23.334;2022-12-07T07:55:10;33.90;;;21.17;;
12474;SDS011;6302;42.624;23.334;2022-12-07T07:57:38;39.27;;;22.60;;
12474;SDS011;6302;42.624;23.334;2022-12-07T08:00:09;30.57;;;20.73;;
12474;SDS011;6302;42.624;23.334;2022-12-07T08:02:39;35.93;;;21.03;;
12474;SDS011;6302;42.624;23.334;2022-12-07T08:05:06;39.87;;;22.00;;
12474;SDS011;6302;42.624;23.334;2022-12-07T08:07:33;38.77;;;23.23;;
12474;SDS011;6302;42.624;23.334;2022-12-07T08:10:01;35.33;;;22.37;;
12474;SDS011;6302;42.624;23.334;2022-12-07T08:12:29;38.37;;;21.33;;
12474;SDS011;6302;42.624;23.334;2022-12-07T08:14:56;36.57;;;21.20;;
12474;SDS011;6302;42.624;23.334;2022-12-07T08:17:24;36.93;;;21.77;;
12474;SDS011;6302;42.624;23.334;2022-12-07T08:19:50;39.93;;;20.73;;
12474;SDS011;6302;42.624;23.334;2022-12-07T08:22:17;36.97;;;20.47;;
12474;SDS011;6302;42.624;23.334;2022-12-07T08:24:44;38.23;;;23.90;;
12474;SDS011;6302;42.624;23.334;2022-12-07T08:27:11;38.50;;;21.43;;
12474;SDS011;6302;42.624;23.334;2022-12-07T08:29:37;37.90;;;21.27;;
12474;SDS011;6302;42.624;23.334;2022-12-07T08:32:04;36.77;;;23.60;;
12474;SDS011;6302;42.624;23.334;2022-12-07T08:34:33;36.43;;;21.93;;
12474;SDS011;6302;42.624;23.334;2022-12-07T08:37:00;38.37;;;23.47;;
12474;SDS011;6302;42.624;23.334;2022-12-07T08:39:27;38.33;;;22.93;;
12474;SDS011;6302;42.624;23.334;2022-12-07T08:41:53;37.60;;;22.53;;
12474;SDS011;6302;42.624;23.334;2022-12-07T08:44:20;39.93;;;23.33;;
12474;SDS011;6302;42.624;23.334;2022-12-07T08:46:47;34.80;;;21.50;;
12474;SDS011;6302;42.624;23.334;2022-12-07T08:49:19;38.20;;;23.03;;
12474;SDS011;6302;42.624;23.334;2022-12-07T08:51:51;43.53;;;24.67;;
12474;SDS011;6302;42.624;23.334;2022-12-07T08:54:19;41.23;;;25.27;;
12474;SDS011;6302;42.624;23.334;2022-12-07T08:56:46;42.53;;;24.13;;
12474;SDS011;6302;42.624;23.334;2022-12-07T08:59:16;41.97;;;25.20;;
12474;SDS011;6302;42.624;23.334;2022-12-07T09:01:45;44.70;;;24.93;;
12474;SDS011;6302;42.624;23.334;2022-12-07T09:04:12;43.73;;;23.50;;
12474;SDS011;6302;42.624;23.334;2022-12-07T09:06:39;38.57;;;24.23;;
12474;SDS011;6302;42.624;23.334;2022-12-07T09:09:08;35.40;;;22.40;;
12474;SDS011;6302;42.624;23.334;2022-12-07T09:11:37;41.27;;;23.73;;
12474;SDS011;6302;42.624;23.334;2022-12-07T09:14:04;41.03;;;23.53;;
12474;SDS011;6302;42.624;23.334;2022-12-07T09:16:31;34.73;;;22.43;;
12474;SDS011;6302;42.624;23.334;2022-12-07T09:18:58;38.97;;;24.10;;
12474;SDS011;6302;42.624;23.334;2022-12-07T09:21:28;33.40;;;22.60;;
12474;SDS011;6302;42.624;23.334;2022-12-07T09:23:58;37.67;;;23.73;;
12474;SDS011;6302;42.624;23.334;2022-12-07T09:26:26;38.57;;;23.37;;
12474;SDS011;6302;42.624;23.334;2022-12-07T09:28:52;35.70;;;22.50;;
12474;SDS011;6302;42.624;23.334;2022-12-07T09:31:19;38.90;;;23.10;;
12474;SDS011;6302;42.624;23.334;2022-12-07T09:33:46;49.47;;;24.80;;
12474;SDS011;6302;42.624;23.334;2022-12-07T09:36:13;40.87;;;25.17;;
12474;SDS011;6302;42.624;23.334;2022-12-07T09:38:40;35.13;;;21.17;;
12474;SDS011;6302;42.624;23.334;2022-12-07T09:41:06;42.93;;;23.50;;
12474;SDS011;6302;42.624;23.334;2022-12-07T09:43:35;41.97;;;23.70;;
12474;SDS011;6302;42.624;23.334;2022-12-07T09:46:05;41.27;;;22.63;;
12474;SDS011;6302;42.624;23.334;2022-12-07T09:48:32;40.70;;;23.13;;
12474;SDS011;6302;42.624;23.334;2022-12-07T09:51:02;36.83;;;22.07;;
12474;SDS011;6302;42.624;23.334;2022-12-07T09:53:37;41.03;;;24.53;;
12474;SDS011;6302;42.624;23.334;2022-12-07T09:56:06;42.57;;;25.60;;
12474;SDS011;6302;42.624;23.334;2022-12-07T09:58:33;43.77;;;28.80;;
12474;SDS011;6302;42.624;23.334;2022-12-07T10:01:05;44.40;;;27.93;;
12474;SDS011;6302;42.624;23.334;2022-12-07T10:03:37;46.50;;;27.43;;
12474;SDS011;6302;42.624;23.334;2022-12-07T10:06:06;45.27;;;28.17;;
12474;SDS011;6302;42.624;23.334;2022-12-07T10:08:33;39.87;;;25.00;;
12474;SDS011;6302;42.624;23.334;2022-12-07T10:11:01;38.80;;;24.30;;
12474;SDS011;6302;42.624;23.334;2022-12-07T10:13:34;32.33;;;22.37;;
12474;SDS011;6302;42.624;23.334;2022-12-07T10:16:04;33.73;;;21.40;;
12474;SDS011;6302;42.624;23.334;2022-12-07T10:18:32;35.37;;;21.93;;
12474;SDS011;6302;42.624;23.334;2022-12-07T10:21:03;36.97;;;19.87;;
12474;SDS011;6302;42.624;23.334;2022-12-07T10:23:41;29.20;;;17.80;;
12474;SDS011;6302;42.624;23.334;2022-12-07T10:26:29;35.03;;;22.43;;
12474;SDS011;6302;42.624;23.334;2022-12-07T10:28:58;39.83;;;22.70;;
12474;SDS011;6302;42.624;23.334;2022-12-07T10:31:28;34.57;;;22.50;;
12474;SDS011;6302;42.624;23.334;2022-12-07T10:33:55;38.40;;;24.63;;
12474;SDS011;6302;42.624;23.334;2022-12-07T10:36:24;48.30;;;27.93;;
12474;SDS011;6302;42.624;23.334;2022-12-07T10:38:58;42.10;;;27.87;;
12474;SDS011;6302;42.624;23.334;2022-12-07T10:41:27;50.33;;;29.27;;
12474;SDS011;6302;42.624;23.334;2022-12-07T10:43:54;40.73;;;27.13;;
12474;SDS011;6302;42.624;23.334;2022-12-07T10:46:37;41.53;;;25.87;;
12474;SDS011;6302;42.624;23.334;2022-12-07T10:49:40;36.20;;;23.97;;
12474;SDS011;6302;42.624;23.334;2022-12-07T10:52:22;39.40;;;24.47;;
12474;SDS011;6302;42.624;23.334;2022-12-07T10:55:08;39.83;;;24.43;;
12474;SDS011;6302;42.624;23.334;2022-12-07T10:57:46;39.47;;;23.33;;
12474;SDS011;6302;42.624;23.334;2022-12-07T11:00:23;46.40;;;26.53;;
12474;SDS011;6302;42.624;23.334;2022-12-07T11:02:56;32.90;;;20.67;;
12474;SDS011;6302;42.624;23.334;2022-12-07T11:05:44;33.77;;;20.43;;
12474;SDS011;6302;42.624;23.334;2022-12-07T11:08:18;30.50;;;20.83;;
12474;SDS011;6302;42.624;23.334;2022-12-07T11:11:05;36.10;;;22.27;;
12474;SDS011;6302;42.624;23.334;2022-12-07T11:13:40;34.20;;;21.37;;
12474;SDS011;6302;42.624;23.334;2022-12-07T11:16:26;34.47;;;22.10;;
12474;SDS011;6302;42.624;23.334;2022-12-07T11:22:18;40.33;;;26.67;;
12474;SDS011;6302;42.624;23.334;2022-12-07T11:24:49;34.10;;;20.60;;
12474;SDS011;6302;42.624;23.334;2022-12-07T11:27:35;27.23;;;18.07;;
12474;SDS011;6302;42.624;23.334;2022-12-07T11:30:09;27.30;;;19.03;;
12474;SDS011;6302;42.624;23.334;2022-12-07T11:35:40;42.87;;;21.27;;
12474;SDS011;6302;42.624;23.334;2022-12-07T11:38:21;24.90;;;15.53;;
12474;SDS011;6302;42.624;23.334;2022-12-07T11:41:04;26.70;;;16.77;;
12474;SDS011;6302;42.624;23.334;2022-12-07T11:43:41;34.23;;;18.83;;
12474;SDS011;6302;42.624;23.334;2022-12-07T11:46:25;47.13;;;22.27;;
12474;SDS011;6302;42.624;23.334;2022-12-07T11:48:58;47.67;;;21.57;;
12474;SDS011;6302;42.624;23.334;2022-12-07T11:51:32;41.47;;;20.60;;
12474;SDS011;6302;42.624;23.334;2022-12-07T11:54:03;27.27;;;16.37;;
12474;SDS011;6302;42.624;23.334;2022-12-07T11:56:37;24.77;;;16.00;;
12474;SDS011;6302;42.624;23.334;2022-12-07T11:59:07;21.90;;;11.97;;
12474;SDS011;6302;42.624;23.334;2022-12-07T12:01:42;25.07;;;13.50;;
12474;SDS011;6302;42.624;23.334;2022-12-07T12:04:23;31.13;;;13.33;;
12474;SDS011;6302;42.624;23.334;2022-12-07T12:06:56;14.50;;;8.73;;
12474;SDS011;6302;42.624;23.334;2022-12-07T12:09:24;19.30;;;12.73;;
12474;SDS011;6302;42.624;23.334;2022-12-07T12:12:05;17.37;;;10.77;;
12474;SDS011;6302;42.624;23.334;2022-12-07T12:14:44;14.47;;;9.30;;
12474;SDS011;6302;42.624;23.334;2022-12-07T12:20:23;14.97;;;10.10;;
12474;SDS011;6302;42.624;23.334;2022-12-07T12:22:58;16.30;;;10.07;;
12474;SDS011;6302;42.624;23.334;2022-12-07T12:25:28;14.17;;;9.63;;
12474;SDS011;6302;42.624;23.334;2022-12-07T12:28:02;14.30;;;9.87;;
12474;SDS011;6302;42.624;23.334;2022-12-07T12:30:31;14.77;;;9.57;;
12474;SDS011;6302;42.624;23.334;2022-12-07T12:33:02;13.33;;;8.63;;
12474;SDS011;6302;42.624;23.334;2022-12-07T12:35:32;19.57;;;9.23;;
12474;SDS011;6302;42.624;23.334;2022-12-07T12:40:59;18.50;;;10.33;;
12474;SDS011;6302;42.624;23.334;2022-12-07T12:43:40;18.40;;;10.67;;
12474;SDS011;6302;42.624;23.334;2022-12-07T12:55:16;12.40;;;8.93;;
12474;SDS011;6302;42.624;23.334;2022-12-07T12:58:29;20.43;;;11.60;;
12474;SDS011;6302;42.624;23.334;2022-12-07T13:04:14;16.83;;;9.27;;
12474;SDS011;6302;42.624;23.334;2022-12-07T13:06:47;14.20;;;9.03;;
12474;SDS011;6302;42.624;23.334;2022-12-07T13:09:17;13.63;;;9.53;;
12474;SDS011;6302;42.624;23.334;2022-12-07T13:11:49;19.43;;;10.10;;
12474;SDS011;6302;42.624;23.334;2022-12-07T13:14:43;22.07;;;12.03;;
12474;SDS011;6302;42.624;23.334;2022-12-07T13:20:46;21.90;;;12.07;;
12474;SDS011;6302;42.624;23.334;2022-12-07T13:23:25;19.37;;;10.20;;
12474;SDS011;6302;42.624;23.334;2022-12-07T13:25:57;19.20;;;11.50;;
12474;SDS011;6302;42.624;23.334;2022-12-07T13:28:35;20.97;;;13.00;;
12474;SDS011;6302;42.624;23.334;2022-12-07T13:31:10;18.57;;;10.73;;
12474;SDS011;6302;42.624;23.334;2022-12-07T13:33:43;23.03;;;13.00;;
12474;SDS011;6302;42.624;23.334;2022-12-07T13:36:13;20.43;;;12.13;;
12474;SDS011;6302;42.624;23.334;2022-12-07T13:38:48;17.77;;;12.00;;
12474;SDS011;6302;42.624;23.334;2022-12-07T13:41:18;19.30;;;12.17;;
12474;SDS011;6302;42.624;23.334;2022-12-07T13:43:49;25.67;;;11.47;;
12474;SDS011;6302;42.624;23.334;2022-12-07T13:46:19;29.80;;;11.63;;
12474;SDS011;6302;42.624;23.334;2022-12-07T13:48:52;26.63;;;14.07;;
12474;SDS011;6302;42.624;23.334;2022-12-07T13:51:21;34.70;;;16.40;;
12474;SDS011;6302;42.624;23.334;2022-12-07T13:53:51;25.63;;;15.93;;
12474;SDS011;6302;42.624;23.334;2022-12-07T13:56:21;22.57;;;13.47;;
12474;SDS011;6302;42.624;23.334;2022-12-07T13:58:50;19.30;;;12.50;;
12474;SDS011;6302;42.624;23.334;2022-12-07T14:01:17;51.50;;;17.70;;
12474;SDS011;6302;42.624;23.334;2022-12-07T14:03:43;33.67;;;15.63;;
12474;SDS011;6302;42.624;23.334;2022-12-07T14:06:15;33.87;;;15.50;;
12474;SDS011;6302;42.624;23.334;2022-12-07T14:08:44;29.67;;;17.30;;
12474;SDS011;6302;42.624;23.334;2022-12-07T14:11:13;26.17;;;15.80;;
12474;SDS011;6302;42.624;23.334;2022-12-07T14:13:54;34.93;;;18.87;;
12474;SDS011;6302;42.624;23.334;2022-12-07T14:16:25;28.40;;;18.53;;
12474;SDS011;6302;42.624;23.334;2022-12-07T14:18:54;26.13;;;18.33;;
12474;SDS011;6302;42.624;23.334;2022-12-07T14:21:23;30.07;;;16.43;;
12474;SDS011;6302;42.624;23.334;2022-12-07T14:24:15;25.67;;;15.03;;
12474;SDS011;6302;42.624;23.334;2022-12-07T14:26:43;21.77;;;14.57;;
12474;SDS011;6302;42.624;23.334;2022-12-07T14:29:22;21.77;;;13.53;;
12474;SDS011;6302;42.624;23.334;2022-12-07T14:31:57;22.53;;;13.03;;
12474;SDS011;6302;42.624;23.334;2022-12-07T14:34:35;20.60;;;13.63;;
12474;SDS011;6302;42.624;23.334;2022-12-07T14:37:02;19.07;;;11.17;;
12474;SDS011;6302;42.624;23.334;2022-12-07T14:39:28;24.40;;;14.13;;
12474;SDS011;6302;42.624;23.334;2022-12-07T14:41:55;23.60;;;14.93;;
12474;SDS011;6302;42.624;23.334;2022-12-07T14:44:24;25.00;;;15.87;;
12474;SDS011;6302;42.624;23.334;2022-12-07T14:46:50;26.87;;;17.27;;
12474;SDS011;6302;42.624;23.334;2022-12-07T14:49:18;34.83;;;17.53;;
12474;SDS011;6302;42.624;23.334;2022-12-07T14:51:46;28.37;;;14.80;;
12474;SDS011;6302;42.624;23.334;2022-12-07T14:54:14;27.83;;;15.50;;
12474;SDS011;6302;42.624;23.334;2022-12-07T14:56:43;24.17;;;14.97;;
12474;SDS011;6302;42.624;23.334;2022-12-07T14:59:11;34.83;;;15.27;;
12474;SDS011;6302;42.624;23.334;2022-12-07T15:01:39;28.60;;;16.47;;
12474;SDS011;6302;42.624;23.334;2022-12-07T15:04:06;31.53;;;16.23;;
12474;SDS011;6302;42.624;23.334;2022-12-07T15:06:33;27.13;;;16.43;;
12474;SDS011;6302;42.624;23.334;2022-12-07T15:09:00;29.57;;;17.03;;
12474;SDS011;6302;42.624;23.334;2022-12-07T15:11:27;39.40;;;16.97;;
12474;SDS011;6302;42.624;23.334;2022-12-07T15:13:54;28.27;;;17.77;;
12474;SDS011;6302;42.624;23.334;2022-12-07T15:16:37;30.77;;;18.23;;